Time;durP1;ratioP1;P1;durP2;ratioP2;P2;SDS_P1;SDS_P2;PMS_P1;PMS_P2;Temp;Humidity;BMP_temperature;BMP_pressure;BME280_temperature;BME280_humidity;BME280_pressure;Samples;Min_cycle;Max_cycle;Signal;HPM_P1;HPM_P2
2023/12/31 00:00:01;;;;;;;11.67;4.83;;;6.60;1.00;;;;;;5121604;28;20647;-73
2023/12/31 00:02:30;;;;;;;11.67;3.50;;;6.60;1.00;;;;;;5116772;28;20611;-69
2023/12/31 00:04:59;;;;;;;6.57;3.37;;;6.60;1.00;;;;;;5121252;27;20222;-71
2023/12/31 00:07:27;;;;;;;8.87;3.33;;;6.60;1.00;;;;;;5109375;27;20214;-70
2023/12/31 00:09:58;;;;;;;5.03;2.90;;;6.80;1.00;;;;;;5100365;27;20229;-70
2023/12/31 00:12:26;;;;;;;7.47;3.53;;;6.80;1.00;;;;;;5117425;27;20253;-71
2023/12/31 00:14:55;;;;;;;9.43;3.80;;;6.80;1.00;;;;;;5127553;27;20244;-67
2023/12/31 00:17:23;;;;;;;9.93;3.27;;;6.80;1.00;;;;;;5105268;27;20229;-68
2023/12/31 00:19:52;;;;;;;7.90;3.43;;;6.80;1.00;;;;;;5122751;27;20222;-68
2023/12/31 00:22:21;;;;;;;8.23;3.93;;;6.70;1.00;;;;;;5081212;28;20231;-68
2023/12/31 00:24:51;;;;;;;11.03;4.23;;;6.70;1.00;;;;;;5085073;28;20225;-69
2023/12/31 00:27:21;;;;;;;8.07;3.83;;;6.60;1.00;;;;;;5099424;27;20652;-69
2023/12/31 00:29:49;;;;;;;8.57;4.30;;;6.60;1.00;;;;;;5102734;27;20234;-68
2023/12/31 00:32:18;;;;;;;8.47;4.40;;;6.60;1.00;;;;;;5080293;28;20219;-69
2023/12/31 00:34:46;;;;;;;8.67;4.03;;;6.60;1.00;;;;;;5096197;27;20215;-69
2023/12/31 00:37:15;;;;;;;8.57;4.30;;;6.50;1.00;;;;;;5080390;28;20226;-70
2023/12/31 00:39:43;;;;;;;10.43;4.67;;;6.50;1.00;;;;;;5078916;28;20227;-70
2023/12/31 00:42:12;;;;;;;8.17;4.23;;;6.50;1.00;;;;;;5081430;28;20812;-69
2023/12/31 00:44:41;;;;;;;9.10;4.80;;;6.50;1.00;;;;;;5102811;28;20219;-69
2023/12/31 00:47:10;;;;;;;8.73;4.50;;;6.50;1.00;;;;;;5097950;27;20226;-69
2023/12/31 00:49:38;;;;;;;11.67;4.93;;;6.50;1.00;;;;;;5088433;28;20721;-69
2023/12/31 00:52:07;;;;;;;9.30;5.00;;;6.40;1.00;;;;;;5103160;28;20314;-68
2023/12/31 00:54:36;;;;;;;9.87;5.30;;;6.50;1.00;;;;;;5085224;28;20558;-68
2023/12/31 00:57:05;;;;;;;10.63;5.10;;;6.40;1.00;;;;;;5077958;28;20216;-69
2023/12/31 00:59:33;;;;;;;10.63;6.03;;;6.30;1.00;;;;;;5101010;28;20768;-68
2023/12/31 01:02:03;;;;;;;14.13;6.30;;;6.30;1.00;;;;;;5100739;28;20306;-71
2023/12/31 01:04:31;;;;;;;10.40;5.90;;;6.20;1.00;;;;;;5075066;28;20222;-69
2023/12/31 01:07:00;;;;;;;12.53;6.87;;;6.20;1.00;;;;;;5077789;28;20274;-70
2023/12/31 01:09:29;;;;;;;13.90;8.13;;;6.20;1.00;;;;;;5094105;27;20218;-71
2023/12/31 01:11:58;;;;;;;15.07;7.93;;;6.20;1.00;;;;;;5086934;28;20543;-71
2023/12/31 01:14:26;;;;;;;14.43;7.37;;;6.20;1.00;;;;;;5102826;28;20266;-70
2023/12/31 01:16:55;;;;;;;17.20;8.17;;;6.30;1.00;;;;;;5085357;27;20483;-69
2023/12/31 01:19:25;;;;;;;15.40;8.00;;;6.30;1.00;;;;;;5102236;27;20228;-70
2023/12/31 01:21:55;;;;;;;16.70;8.47;;;6.20;1.00;;;;;;5106127;27;20222;-69
2023/12/31 01:24:23;;;;;;;15.10;8.20;;;6.40;1.00;;;;;;5093439;27;20306;-70
2023/12/31 01:26:52;;;;;;;14.83;7.87;;;6.30;1.00;;;;;;5119512;27;20231;-69
2023/12/31 01:29:20;;;;;;;13.63;7.83;;;6.30;1.00;;;;;;5116648;27;20214;-70
2023/12/31 01:31:49;;;;;;;15.03;8.33;;;6.40;1.00;;;;;;5105656;27;20308;-70
2023/12/31 01:34:17;;;;;;;13.57;8.20;;;6.30;1.00;;;;;;5093248;27;20226;-70
2023/12/31 01:36:47;;;;;;;14.73;8.73;;;6.30;1.00;;;;;;5115392;27;20221;-70
2023/12/31 01:39:16;;;;;;;14.70;8.27;;;6.40;1.00;;;;;;5096288;27;20728;-71
2023/12/31 01:41:44;;;;;;;14.37;8.60;;;6.50;1.00;;;;;;5109988;27;20266;-71
2023/12/31 01:44:14;;;;;;;17.03;8.40;;;6.40;1.00;;;;;;5115563;27;20302;-71
2023/12/31 01:46:43;;;;;;;12.13;7.83;;;6.30;1.00;;;;;;5103789;27;20227;-69
2023/12/31 01:49:12;;;;;;;12.20;8.77;;;6.30;1.00;;;;;;5090477;27;20215;-70
2023/12/31 01:51:41;;;;;;;13.83;7.67;;;6.40;1.00;;;;;;5118658;27;20726;-70
2023/12/31 01:54:11;;;;;;;14.37;7.80;;;6.50;1.00;;;;;;5122047;27;20348;-70
2023/12/31 01:56:40;;;;;;;12.27;8.00;;;6.30;1.00;;;;;;5104651;27;20217;-70
2023/12/31 01:59:09;;;;;;;16.03;8.47;;;6.40;1.00;;;;;;5104995;27;20218;-71
2023/12/31 02:01:40;;;;;;;13.67;7.53;;;6.40;1.00;;;;;;5122793;27;20222;-70
2023/12/31 02:04:09;;;;;;;16.00;8.30;;;6.40;1.00;;;;;;5094824;28;20318;-70
2023/12/31 02:06:40;;;;;;;11.90;7.60;;;6.40;1.00;;;;;;5115765;27;20229;-69
2023/12/31 02:09:09;;;;;;;13.20;8.10;;;6.30;1.00;;;;;;5105745;27;20224;-69
2023/12/31 02:11:39;;;;;;;14.67;8.60;;;6.30;1.00;;;;;;5101257;27;20268;-70
2023/12/31 02:14:08;;;;;;;14.40;7.37;;;6.30;1.00;;;;;;5121668;27;20236;-70
2023/12/31 02:16:36;;;;;;;15.23;7.40;;;6.30;1.00;;;;;;5119155;27;20222;-70
2023/12/31 02:19:06;;;;;;;11.43;6.67;;;6.30;1.00;;;;;;5109238;27;20241;-69
2023/12/31 02:21:35;;;;;;;10.37;6.63;;;6.30;1.00;;;;;;5114064;27;20694;-70
2023/12/31 02:24:03;;;;;;;14.30;6.77;;;6.20;1.00;;;;;;5115053;27;20928;-70
2023/12/31 02:26:34;;;;;;;13.10;7.33;;;6.20;1.00;;;;;;5099617;28;20224;-69
2023/12/31 02:29:03;;;;;;;12.17;6.77;;;6.20;1.00;;;;;;5100959;28;20268;-69
2023/12/31 02:31:33;;;;;;;11.10;6.40;;;6.20;1.00;;;;;;5095058;27;20252;-69
2023/12/31 02:34:02;;;;;;;10.03;6.17;;;6.20;1.00;;;;;;5100628;28;20666;-68
2023/12/31 02:36:30;;;;;;;10.97;6.20;;;6.40;1.00;;;;;;5100659;28;20229;-69
2023/12/31 02:38:59;;;;;;;12.00;6.43;;;6.40;1.00;;;;;;5111420;27;20218;-69
2023/12/31 02:41:28;;;;;;;9.50;6.30;;;6.40;1.00;;;;;;5101467;28;20228;-69
2023/12/31 02:43:58;;;;;;;10.20;6.10;;;6.30;1.00;;;;;;5101727;28;20647;-69
2023/12/31 02:46:26;;;;;;;12.63;6.50;;;6.30;1.00;;;;;;5100829;28;20222;-68
2023/12/31 02:48:55;;;;;;;13.20;6.70;;;6.30;1.00;;;;;;5099332;28;20828;-69
2023/12/31 02:51:24;;;;;;;12.00;7.00;;;6.30;1.00;;;;;;5099802;28;20897;-68
2023/12/31 02:53:52;;;;;;;13.07;6.90;;;6.30;1.00;;;;;;5099111;27;20713;-68
2023/12/31 02:56:22;;;;;;;14.40;7.20;;;6.30;1.00;;;;;;5108487;27;20227;-68
2023/12/31 02:58:50;;;;;;;10.77;6.43;;;6.30;1.00;;;;;;5103258;27;20224;-69
2023/12/31 03:01:21;;;;;;;12.90;6.37;;;6.20;1.00;;;;;;5096798;28;20246;-67
2023/12/31 03:03:50;;;;;;;15.53;7.67;;;6.20;1.00;;;;;;5116577;27;20233;-69
2023/12/31 03:06:19;;;;;;;13.23;7.53;;;6.20;1.00;;;;;;5084799;28;20687;-68
2023/12/31 03:08:48;;;;;;;14.77;7.30;;;6.10;1.00;;;;;;5098275;27;20301;-67
2023/12/31 03:11:16;;;;;;;13.07;7.50;;;6.10;1.00;;;;;;5108807;27;20250;-68
2023/12/31 03:13:44;;;;;;;10.47;6.67;;;6.10;1.00;;;;;;5095540;28;20241;-68
2023/12/31 03:16:13;;;;;;;11.13;7.60;;;6.10;1.00;;;;;;5104477;27;20229;-69
2023/12/31 03:18:43;;;;;;;14.57;7.70;;;6.10;1.00;;;;;;5095413;27;20241;-67
2023/12/31 03:21:15;;;;;;;13.37;7.60;;;6.00;1.00;;;;;;5093711;28;20223;-68
2023/12/31 03:23:43;;;;;;;11.67;7.53;;;5.90;1.00;;;;;;5115816;27;20242;-68
2023/12/31 03:26:12;;;;;;;12.93;8.13;;;6.00;1.00;;;;;;5102668;28;20262;-68
2023/12/31 03:28:41;;;;;;;12.67;7.27;;;6.00;1.00;;;;;;5118692;27;20707;-68
2023/12/31 03:31:10;;;;;;;11.00;6.93;;;6.00;1.00;;;;;;5118387;28;20214;-68
2023/12/31 03:33:39;;;;;;;11.03;7.37;;;6.00;1.00;;;;;;5098993;28;20225;-68
2023/12/31 03:36:09;;;;;;;12.83;7.83;;;6.10;1.00;;;;;;5109051;28;20912;-68
2023/12/31 03:38:37;;;;;;;16.17;7.93;;;6.10;1.00;;;;;;5098821;28;20213;-67
2023/12/31 03:41:06;;;;;;;15.83;7.80;;;6.20;1.00;;;;;;5116972;28;20226;-68
2023/12/31 03:43:34;;;;;;;11.97;7.23;;;6.20;1.00;;;;;;5117863;27;20210;-67
2023/12/31 03:46:03;;;;;;;13.50;7.87;;;6.10;1.00;;;;;;5090334;27;20834;-70
2023/12/31 03:48:32;;;;;;;18.57;8.10;;;6.10;1.00;;;;;;5113199;27;20267;-69
2023/12/31 03:51:01;;;;;;;14.33;8.37;;;6.20;1.00;;;;;;5119088;27;20229;-69
2023/12/31 03:53:31;;;;;;;15.47;8.57;;;6.20;1.00;;;;;;5119473;27;20884;-69
2023/12/31 03:55:59;;;;;;;13.83;8.83;;;6.20;1.00;;;;;;5096445;27;20214;-69
2023/12/31 03:58:28;;;;;;;16.33;9.17;;;6.30;1.00;;;;;;5102641;27;20226;-69
2023/12/31 04:00:58;;;;;;;16.20;9.60;;;6.20;1.00;;;;;;5120594;27;20220;-70
2023/12/31 04:03:26;;;;;;;15.90;9.13;;;6.20;1.00;;;;;;5099923;27;20226;-70
2023/12/31 04:05:55;;;;;;;18.33;11.20;;;6.20;1.00;;;;;;5116096;27;20217;-71
2023/12/31 04:08:24;;;;;;;15.13;10.57;;;6.20;1.00;;;;;;5102156;27;20313;-71
2023/12/31 04:10:54;;;;;;;15.60;10.00;;;6.20;1.00;;;;;;5107453;27;20218;-71
2023/12/31 04:13:23;;;;;;;16.37;10.60;;;6.20;1.00;;;;;;5126063;27;20625;-71
2023/12/31 04:15:51;;;;;;;17.97;11.27;;;6.30;1.00;;;;;;5105085;27;20221;-72
2023/12/31 04:18:19;;;;;;;16.23;10.53;;;6.30;1.00;;;;;;5119863;27;20235;-71
2023/12/31 04:20:48;;;;;;;18.50;11.20;;;6.30;1.00;;;;;;5123080;27;20228;-71
2023/12/31 04:23:17;;;;;;;16.80;10.30;;;6.20;1.00;;;;;;5120214;27;20226;-72
2023/12/31 04:25:46;;;;;;;21.30;12.03;;;6.20;1.00;;;;;;5104731;27;20270;-71
2023/12/31 04:28:17;;;;;;;19.70;11.37;;;6.20;1.00;;;;;;5108282;27;20753;-71
2023/12/31 04:30:46;;;;;;;21.07;11.10;;;6.20;1.00;;;;;;5102145;27;20276;-71
2023/12/31 04:33:14;;;;;;;17.23;10.37;;;6.20;1.00;;;;;;5118539;27;20238;-71
2023/12/31 04:35:43;;;;;;;19.93;10.97;;;6.20;1.00;;;;;;5103917;27;20240;-70
2023/12/31 04:38:19;;;;;;;17.57;10.53;;;6.20;1.00;;;;;;5095468;27;20219;-71
2023/12/31 04:40:48;;;;;;;15.87;10.23;;;6.20;1.00;;;;;;5103666;27;20221;-70
2023/12/31 04:43:18;;;;;;;17.10;10.57;;;6.30;1.00;;;;;;5125306;27;20728;-70
2023/12/31 04:45:47;;;;;;;20.13;10.73;;;6.20;1.00;;;;;;5124751;27;20308;-71
2023/12/31 04:48:16;;;;;;;20.13;10.77;;;6.20;1.00;;;;;;5100891;27;20226;-71
2023/12/31 04:50:45;;;;;;;18.60;10.87;;;6.40;1.00;;;;;;5101639;27;20225;-71
2023/12/31 04:53:15;;;;;;;18.20;10.77;;;6.30;1.00;;;;;;5104580;27;20290;-70
2023/12/31 04:55:44;;;;;;;18.80;10.77;;;6.30;1.00;;;;;;5106306;27;20378;-70
2023/12/31 04:58:12;;;;;;;17.63;10.83;;;6.10;1.00;;;;;;5123991;27;20240;-69
2023/12/31 05:00:42;;;;;;;23.37;11.53;;;6.10;1.00;;;;;;5123632;27;20237;-69
2023/12/31 05:03:11;;;;;;;18.53;10.80;;;6.10;1.00;;;;;;5115852;27;20695;-70
2023/12/31 05:05:40;;;;;;;17.10;10.50;;;6.20;1.00;;;;;;5120303;27;20263;-70
2023/12/31 05:08:08;;;;;;;21.33;11.07;;;6.10;1.00;;;;;;5102894;28;20242;-70
2023/12/31 05:10:38;;;;;;;18.67;10.63;;;6.20;1.00;;;;;;5101774;27;20224;-69
2023/12/31 05:13:06;;;;;;;18.70;10.30;;;6.20;1.00;;;;;;5121646;27;20263;-70
2023/12/31 05:15:35;;;;;;;18.23;9.97;;;6.20;1.00;;;;;;5122776;27;20259;-70
2023/12/31 05:18:05;;;;;;;19.03;10.73;;;6.20;1.00;;;;;;5116863;27;20250;-69
2023/12/31 05:20:34;;;;;;;18.97;10.50;;;6.10;1.00;;;;;;5099306;28;20262;-69
2023/12/31 05:23:02;;;;;;;17.97;10.20;;;6.00;1.00;;;;;;5115723;27;20248;-69
2023/12/31 05:25:31;;;;;;;21.53;10.43;;;5.90;1.00;;;;;;5114119;27;20223;-71
2023/12/31 05:27:59;;;;;;;19.57;10.03;;;5.80;1.00;;;;;;5105353;27;20218;-69
2023/12/31 05:30:28;;;;;;;16.13;9.73;;;5.70;1.00;;;;;;5104640;27;20319;-70
2023/12/31 05:32:56;;;;;;;17.00;9.53;;;5.70;1.00;;;;;;5103789;27;20232;-70
2023/12/31 05:35:26;;;;;;;17.17;9.50;;;5.60;1.00;;;;;;5104149;27;20250;-69
2023/12/31 05:37:55;;;;;;;17.13;9.57;;;5.60;1.00;;;;;;5116146;27;20230;-69
2023/12/31 05:40:23;;;;;;;18.17;9.73;;;5.60;1.00;;;;;;5123729;27;20253;-69
2023/12/31 05:42:52;;;;;;;17.20;10.00;;;5.50;1.00;;;;;;5099755;27;20226;-68
2023/12/31 05:45:20;;;;;;;17.67;9.77;;;5.50;1.00;;;;;;5101525;27;20214;-70
2023/12/31 05:47:49;;;;;;;16.40;9.87;;;5.50;1.00;;;;;;5092283;27;20227;-69
2023/12/31 05:50:18;;;;;;;20.23;10.23;;;5.50;1.00;;;;;;5101388;27;20287;-69
2023/12/31 05:52:47;;;;;;;17.73;10.17;;;5.50;1.00;;;;;;5104585;27;20230;-70
2023/12/31 05:55:16;;;;;;;22.37;11.13;;;5.50;1.00;;;;;;5125762;27;20727;-70
2023/12/31 05:57:45;;;;;;;18.87;11.10;;;5.50;1.00;;;;;;5106995;27;20702;-69
2023/12/31 06:00:14;;;;;;;18.93;10.20;;;5.40;1.00;;;;;;5117249;27;20226;-69
2023/12/31 06:02:42;;;;;;;17.93;10.07;;;5.40;1.00;;;;;;5099317;27;20215;-72
2023/12/31 06:05:11;;;;;;;17.73;10.80;;;5.40;1.00;;;;;;5106628;27;20993;-72
2023/12/31 06:07:40;;;;;;;21.63;10.43;;;5.40;1.00;;;;;;5099194;28;20271;-72
2023/12/31 06:10:10;;;;;;;17.13;10.10;;;5.40;1.00;;;;;;5103040;27;20233;-71
2023/12/31 06:12:39;;;;;;;22.90;11.37;;;5.40;1.00;;;;;;5118358;27;20277;-72
2023/12/31 06:15:09;;;;;;;23.27;11.33;;;5.40;1.00;;;;;;5102388;27;21271;-72
2023/12/31 06:17:38;;;;;;;23.07;10.63;;;5.40;1.00;;;;;;5106296;27;20228;-72
2023/12/31 06:20:08;;;;;;;19.77;10.80;;;5.40;1.00;;;;;;5093887;28;20297;-72
2023/12/31 06:22:37;;;;;;;20.00;10.47;;;5.30;1.00;;;;;;5091813;28;20239;-73
2023/12/31 06:25:07;;;;;;;18.77;11.40;;;5.30;1.00;;;;;;5079465;28;20246;-70
2023/12/31 06:27:38;;;;;;;21.07;11.23;;;5.40;1.00;;;;;;5100633;28;20769;-70
2023/12/31 06:30:07;;;;;;;21.90;10.50;;;5.50;1.00;;;;;;5081754;28;20231;-71
2023/12/31 06:32:36;;;;;;;24.03;11.60;;;5.40;1.00;;;;;;5092990;28;20279;-69
2023/12/31 06:35:06;;;;;;;21.00;11.10;;;5.40;1.00;;;;;;5100299;28;20227;-70
2023/12/31 06:37:34;;;;;;;22.33;11.20;;;5.40;1.00;;;;;;5102298;28;20247;-70
2023/12/31 06:40:04;;;;;;;20.20;11.13;;;5.30;1.00;;;;;;5077251;28;20288;-69
2023/12/31 06:42:32;;;;;;;23.50;11.30;;;5.30;1.00;;;;;;5095884;28;20233;-67
2023/12/31 06:45:02;;;;;;;20.37;10.70;;;5.20;1.00;;;;;;5096637;28;20240;-70
2023/12/31 06:47:31;;;;;;;23.97;11.10;;;5.20;1.00;;;;;;5090595;27;20218;-68
2023/12/31 06:49:59;;;;;;;25.03;11.80;;;5.10;1.00;;;;;;5096860;28;20275;-70
2023/12/31 06:52:28;;;;;;;22.57;11.50;;;5.10;1.00;;;;;;5096611;28;20215;-68
2023/12/31 06:54:56;;;;;;;26.70;11.03;;;5.10;1.00;;;;;;5090667;28;21063;-71
2023/12/31 06:57:25;;;;;;;23.23;12.03;;;5.10;1.00;;;;;;5102459;28;20218;-70
2023/12/31 06:59:53;;;;;;;26.23;12.60;;;5.00;1.00;;;;;;5095113;27;20218;-70
2023/12/31 07:02:25;;;;;;;21.73;11.47;;;4.90;1.00;;;;;;5081499;28;20255;-69
2023/12/31 07:04:54;;;;;;;23.67;12.13;;;4.90;1.00;;;;;;5094717;28;20218;-68
2023/12/31 07:07:22;;;;;;;26.63;12.07;;;4.90;1.00;;;;;;5079480;28;20223;-71
2023/12/31 07:09:51;;;;;;;24.83;12.30;;;4.90;1.00;;;;;;5098358;28;20241;-72
2023/12/31 07:12:20;;;;;;;21.90;11.90;;;4.90;1.00;;;;;;5099331;27;20219;-71
2023/12/31 07:14:48;;;;;;;22.17;11.67;;;4.90;1.00;;;;;;5077119;28;20229;-70
2023/12/31 07:17:17;;;;;;;20.43;11.60;;;4.90;1.00;;;;;;5073401;28;20263;-72
2023/12/31 07:19:59;;;;;;;24.17;12.57;;;4.90;1.00;;;;;;5078985;28;20729;-71
2023/12/31 07:22:28;;;;;;;23.40;12.37;;;5.00;1.00;;;;;;5090882;28;20220;-71
2023/12/31 07:24:56;;;;;;;22.07;11.97;;;5.10;1.00;;;;;;5097903;27;20233;-71
2023/12/31 07:27:25;;;;;;;21.73;12.30;;;5.00;1.00;;;;;;5089993;28;20252;-69
2023/12/31 07:29:54;;;;;;;24.37;11.63;;;5.00;1.00;;;;;;5092732;28;20337;-70
2023/12/31 07:32:23;;;;;;;23.80;12.00;;;5.00;1.00;;;;;;5090529;28;20276;-71
2023/12/31 07:34:52;;;;;;;26.07;12.40;;;5.00;1.00;;;;;;5096810;28;20215;-68
2023/12/31 07:37:22;;;;;;;25.60;12.27;;;5.00;1.00;;;;;;5117326;28;20238;-69
2023/12/31 07:39:50;;;;;;;26.40;13.10;;;5.00;1.00;;;;;;5116420;28;20299;-67
2023/12/31 07:42:19;;;;;;;24.27;11.87;;;5.00;1.00;;;;;;5110110;28;20302;-68
2023/12/31 07:44:47;;;;;;;20.47;12.60;;;5.00;1.00;;;;;;5101913;28;20334;-69
2023/12/31 07:47:16;;;;;;;21.63;12.60;;;5.00;1.00;;;;;;5113734;28;20219;-68
2023/12/31 07:49:45;;;;;;;23.17;12.13;;;5.10;1.00;;;;;;5114824;27;20232;-69
2023/12/31 07:52:16;;;;;;;21.83;12.13;;;5.00;1.00;;;;;;5112799;28;20722;-69
2023/12/31 07:54:46;;;;;;;21.87;12.23;;;5.00;1.00;;;;;;5094185;28;20222;-69
2023/12/31 07:57:15;;;;;;;25.13;12.43;;;5.00;1.00;;;;;;5098027;28;20685;-68
2023/12/31 07:59:44;;;;;;;22.20;11.00;;;5.10;1.00;;;;;;5109739;28;20233;-70
2023/12/31 08:02:13;;;;;;;22.80;11.23;;;5.10;1.00;;;;;;5113156;28;20246;-70
2023/12/31 08:04:42;;;;;;;21.13;11.93;;;5.10;1.00;;;;;;5096190;28;20689;-70
2023/12/31 08:07:11;;;;;;;24.90;11.60;;;5.20;1.00;;;;;;5110434;28;20231;-70
2023/12/31 08:09:39;;;;;;;24.43;12.43;;;5.30;1.00;;;;;;5096946;28;20213;-69
2023/12/31 08:12:09;;;;;;;24.73;11.97;;;5.30;1.00;;;;;;5090797;28;20343;-70
2023/12/31 08:14:39;;;;;;;20.57;11.67;;;5.40;1.00;;;;;;5116355;28;20225;-70
2023/12/31 08:17:07;;;;;;;20.33;11.10;;;5.30;1.00;;;;;;5112655;27;20717;-70
2023/12/31 08:19:35;;;;;;;21.17;12.23;;;5.30;1.00;;;;;;5090410;28;20762;-69
2023/12/31 08:22:04;;;;;;;23.40;11.53;;;5.50;1.00;;;;;;5098258;28;20733;-69
2023/12/31 08:24:33;;;;;;;21.57;11.80;;;5.50;1.00;;;;;;5109526;27;20246;-68
2023/12/31 08:27:01;;;;;;;23.43;14.53;;;5.50;1.00;;;;;;5104567;28;20311;-69
2023/12/31 08:29:31;;;;;;;30.27;11.70;;;5.40;1.00;;;;;;5106202;27;20220;-68
2023/12/31 08:31:59;;;;;;;22.57;11.80;;;5.40;1.00;;;;;;5118934;27;20310;-69
2023/12/31 08:34:29;;;;;;;23.20;11.30;;;5.30;1.00;;;;;;5097318;27;20247;-68
2023/12/31 08:36:58;;;;;;;22.30;11.73;;;5.40;1.00;;;;;;5099611;27;20531;-68
2023/12/31 08:39:26;;;;;;;20.33;11.77;;;5.50;1.00;;;;;;5116122;27;20222;-70
2023/12/31 08:41:55;;;;;;;22.17;11.57;;;5.50;1.00;;;;;;5119909;27;20255;-71
2023/12/31 08:44:23;;;;;;;22.03;11.93;;;5.50;1.00;;;;;;5121320;27;20218;-71
2023/12/31 08:46:54;;;;;;;24.73;12.27;;;5.60;1.00;;;;;;5119775;27;20883;-71
2023/12/31 08:49:24;;;;;;;23.00;11.57;;;5.60;1.00;;;;;;5103031;27;20303;-71
2023/12/31 08:51:54;;;;;;;23.27;11.70;;;5.70;1.00;;;;;;5122016;27;20254;-71
2023/12/31 08:54:22;;;;;;;21.93;11.83;;;5.70;1.00;;;;;;5120277;27;20318;-71
2023/12/31 08:56:50;;;;;;;19.53;11.27;;;5.80;1.00;;;;;;5098012;27;20227;-71
2023/12/31 08:59:19;;;;;;;20.57;11.67;;;5.90;1.00;;;;;;5120574;27;20225;-71
2023/12/31 09:01:47;;;;;;;22.03;11.83;;;5.90;1.00;;;;;;5119380;27;20220;-70
2023/12/31 09:04:17;;;;;;;22.30;12.20;;;5.80;1.00;;;;;;5112776;27;20221;-71
2023/12/31 09:06:46;;;;;;;20.77;12.57;;;5.90;1.00;;;;;;5124678;27;20238;-71
2023/12/31 09:09:14;;;;;;;25.10;12.77;;;5.90;1.00;;;;;;5118278;27;20222;-71
2023/12/31 09:11:43;;;;;;;20.53;12.17;;;5.90;1.00;;;;;;5120419;27;20261;-70
2023/12/31 09:14:12;;;;;;;24.43;12.47;;;5.90;1.00;;;;;;5102760;27;20223;-70
2023/12/31 09:16:40;;;;;;;24.70;13.03;;;6.00;1.00;;;;;;5097948;27;20218;-70
2023/12/31 09:19:09;;;;;;;22.73;12.50;;;6.10;1.00;;;;;;5096970;27;20225;-70
2023/12/31 09:21:39;;;;;;;23.10;12.87;;;6.00;1.00;;;;;;5123847;27;20269;-70
2023/12/31 09:24:08;;;;;;;22.77;12.87;;;6.10;1.00;;;;;;5101149;27;20249;-70
2023/12/31 09:26:36;;;;;;;26.27;12.87;;;6.10;1.00;;;;;;5097251;27;20304;-70
2023/12/31 09:29:05;;;;;;;22.10;13.03;;;6.10;1.00;;;;;;5117267;27;20798;-70
2023/12/31 09:31:34;;;;;;;22.50;12.60;;;6.00;1.00;;;;;;5111480;27;20717;-70
2023/12/31 09:34:02;;;;;;;27.33;12.77;;;6.10;1.00;;;;;;5117140;27;20332;-70
2023/12/31 09:36:31;;;;;;;22.40;11.90;;;6.10;1.00;;;;;;5099168;27;20219;-69
2023/12/31 09:39:01;;;;;;;23.27;12.47;;;6.20;1.00;;;;;;5107877;27;20235;-71
2023/12/31 09:41:31;;;;;;;27.13;12.07;;;6.20;1.00;;;;;;5115474;27;20727;-71
2023/12/31 09:44:01;;;;;;;22.80;12.27;;;6.30;1.00;;;;;;5106296;27;20229;-70
2023/12/31 09:46:33;;;;;;;20.50;12.07;;;6.20;1.00;;;;;;5117265;27;20318;-70
2023/12/31 09:49:02;;;;;;;20.77;12.70;;;6.30;1.00;;;;;;5115656;27;20230;-70
2023/12/31 09:51:31;;;;;;;20.13;12.30;;;6.30;1.00;;;;;;5114644;27;20220;-70
2023/12/31 09:54:02;;;;;;;22.50;12.03;;;6.20;1.00;;;;;;5111034;27;20236;-69
2023/12/31 09:56:32;;;;;;;20.20;12.13;;;6.30;1.00;;;;;;5105866;27;20791;-70
2023/12/31 09:59:01;;;;;;;22.17;11.70;;;6.30;1.00;;;;;;5110787;27;20213;-70
2023/12/31 10:01:37;;;;;;;23.50;11.93;;;6.30;1.00;;;;;;5103240;27;20217;-70
2023/12/31 10:04:07;;;;;;;26.13;12.63;;;6.30;1.00;;;;;;5115950;27;20231;-74
2023/12/31 10:06:41;;;;;;;24.37;12.90;;;6.30;1.00;;;;;;5116496;27;20270;-69
2023/12/31 10:09:12;;;;;;;23.80;13.67;;;6.40;1.00;;;;;;5109043;27;20257;-70
2023/12/31 10:11:42;;;;;;;21.87;12.97;;;6.30;1.00;;;;;;5122966;27;20617;-69
2023/12/31 10:14:10;;;;;;;24.90;12.53;;;6.20;1.00;;;;;;5101450;27;20222;-70
2023/12/31 10:16:43;;;;;;;21.50;12.60;;;6.50;1.00;;;;;;5116025;27;20306;-69
2023/12/31 10:19:12;;;;;;;20.47;12.60;;;6.30;1.00;;;;;;5116294;27;20215;-72
2023/12/31 10:21:43;;;;;;;20.60;12.33;;;6.30;1.00;;;;;;5120560;27;20423;-68
2023/12/31 10:24:26;;;;;;;23.20;13.37;;;6.40;1.00;;;;;;5116339;27;20224;-68
2023/12/31 10:26:58;;;;;;;25.23;12.83;;;6.50;1.00;;;;;;5115048;27;20230;-68
2023/12/31 10:29:26;;;;;;;22.07;12.67;;;6.50;1.00;;;;;;5119084;27;20214;-68
2023/12/31 10:31:55;;;;;;;21.20;12.43;;;6.50;1.00;;;;;;5111069;27;20217;-68
2023/12/31 10:34:24;;;;;;;22.77;12.77;;;6.40;1.00;;;;;;5098513;27;20265;-68
2023/12/31 10:37:03;;;;;;;23.30;12.77;;;6.40;1.00;;;;;;5116122;27;20296;-68
2023/12/31 10:39:35;;;;;;;24.43;12.80;;;6.50;1.00;;;;;;5116789;27;20222;-68
2023/12/31 10:42:05;;;;;;;24.37;12.37;;;6.50;1.00;;;;;;5122263;27;20244;-68
2023/12/31 10:44:35;;;;;;;18.23;12.40;;;6.40;1.00;;;;;;5121780;27;20226;-68
2023/12/31 10:47:05;;;;;;;19.57;12.37;;;6.30;1.00;;;;;;5120168;27;20368;-68
2023/12/31 10:49:35;;;;;;;19.93;12.67;;;6.40;1.00;;;;;;5094771;27;20240;-68
2023/12/31 10:52:06;;;;;;;22.27;12.50;;;6.40;1.00;;;;;;5094164;27;20293;-68
2023/12/31 10:54:44;;;;;;;21.63;13.10;;;6.40;1.00;;;;;;5115368;27;20305;-69
2023/12/31 10:57:13;;;;;;;25.53;13.63;;;6.40;1.00;;;;;;5096063;27;20836;-68
2023/12/31 10:59:42;;;;;;;25.73;13.30;;;6.40;1.00;;;;;;5098791;27;20233;-68
2023/12/31 11:02:16;;;;;;;24.37;13.20;;;6.40;1.00;;;;;;5105102;27;20589;-68
2023/12/31 11:04:46;;;;;;;26.97;14.07;;;6.40;1.00;;;;;;5092982;27;20298;-67
2023/12/31 11:07:16;;;;;;;23.20;13.67;;;6.40;1.00;;;;;;5091987;27;20497;-68
2023/12/31 11:09:47;;;;;;;24.63;13.53;;;6.30;1.00;;;;;;5114154;27;20749;-67
2023/12/31 11:12:17;;;;;;;24.03;13.73;;;6.30;1.00;;;;;;5113433;27;20256;-67
2023/12/31 11:14:50;;;;;;;25.47;13.73;;;6.40;1.00;;;;;;5104132;27;20784;-68
2023/12/31 11:17:46;;;;;;;25.57;14.37;;;6.20;1.00;;;;;;5115584;27;20315;-72
2023/12/31 11:20:56;;;;;;;21.50;13.60;;;6.30;1.00;;;;;;5113570;27;20234;-68
2023/12/31 11:23:38;;;;;;;23.73;14.50;;;6.20;1.00;;;;;;5121473;27;20231;-69
2023/12/31 11:26:09;;;;;;;25.30;14.57;;;6.30;1.00;;;;;;5095040;27;20290;-69
2023/12/31 11:28:38;;;;;;;26.23;15.00;;;6.20;1.00;;;;;;5121180;27;20222;-69
2023/12/31 11:31:10;;;;;;;28.40;14.80;;;6.20;1.00;;;;;;5096174;28;20233;-69
2023/12/31 11:33:40;;;;;;;29.73;15.43;;;6.20;1.00;;;;;;5116506;28;20230;-69
2023/12/31 11:36:13;;;;;;;29.17;16.77;;;6.10;1.00;;;;;;5116636;27;20687;-69
2023/12/31 11:38:53;;;;;;;25.87;15.73;;;6.10;1.00;;;;;;5116410;27;20763;-69
2023/12/31 11:41:24;;;;;;;27.50;16.23;;;6.10;1.00;;;;;;5119237;27;20294;-69
2023/12/31 11:43:53;;;;;;;26.10;15.53;;;6.20;1.00;;;;;;5102669;28;20359;-69
2023/12/31 11:46:33;;;;;;;23.80;15.53;;;6.20;1.00;;;;;;5096911;28;20873;-69
2023/12/31 11:49:02;;;;;;;23.97;15.03;;;6.20;1.00;;;;;;5113353;27;20227;-69
2023/12/31 11:51:54;;;;;;;30.57;16.60;;;6.20;1.00;;;;;;5096475;28;20217;-69
2023/12/31 11:54:23;;;;;;;27.23;16.43;;;6.20;1.00;;;;;;5115730;28;20225;-69
2023/12/31 11:56:54;;;;;;;24.97;16.03;;;6.00;1.00;;;;;;5098438;28;20222;-68
2023/12/31 11:59:23;;;;;;;28.60;16.70;;;5.90;1.00;;;;;;5110710;28;20226;-69
2023/12/31 12:01:54;;;;;;;30.90;16.17;;;5.90;1.00;;;;;;5114388;28;20239;-69
2023/12/31 12:04:22;;;;;;;33.60;17.13;;;6.00;1.00;;;;;;5117849;27;20217;-69
2023/12/31 12:06:51;;;;;;;27.87;16.13;;;6.00;1.00;;;;;;5097310;28;20220;-69
2023/12/31 12:09:22;;;;;;;28.00;16.67;;;6.10;1.00;;;;;;5086035;28;20322;-68
2023/12/31 12:11:51;;;;;;;28.80;16.43;;;6.20;1.00;;;;;;5102914;27;20230;-69
2023/12/31 12:14:21;;;;;;;25.73;16.40;;;6.30;1.00;;;;;;5116863;27;20234;-69
2023/12/31 12:16:49;;;;;;;26.20;16.03;;;6.30;1.00;;;;;;5124200;27;20230;-68
2023/12/31 12:19:18;;;;;;;27.37;16.50;;;6.20;1.00;;;;;;5119406;27;20243;-68
2023/12/31 12:21:46;;;;;;;30.40;16.37;;;6.10;1.00;;;;;;5115343;27;20301;-68
2023/12/31 12:24:15;;;;;;;28.67;16.93;;;6.10;1.00;;;;;;5108994;27;20221;-68
2023/12/31 12:26:44;;;;;;;29.57;16.37;;;6.20;1.00;;;;;;5121691;27;20234;-68
2023/12/31 12:29:14;;;;;;;27.30;16.47;;;6.10;1.00;;;;;;5123785;27;20223;-68
2023/12/31 12:31:46;;;;;;;28.33;16.33;;;6.20;1.00;;;;;;5108099;27;20211;-68
2023/12/31 12:34:15;;;;;;;28.30;16.33;;;6.10;1.00;;;;;;5115724;27;20218;-69
2023/12/31 12:36:44;;;;;;;27.77;16.93;;;6.10;1.00;;;;;;5115828;27;20364;-68
2023/12/31 12:39:16;;;;;;;28.07;16.10;;;6.20;1.00;;;;;;5115197;27;20306;-68
2023/12/31 12:41:46;;;;;;;27.63;16.37;;;6.30;1.00;;;;;;5122056;27;20233;-68
2023/12/31 12:44:14;;;;;;;33.60;17.50;;;6.20;1.00;;;;;;5121420;27;20221;-68
2023/12/31 12:46:45;;;;;;;28.50;17.57;;;6.30;1.00;;;;;;5111273;27;20301;-68
2023/12/31 12:49:14;;;;;;;33.97;18.03;;;6.40;1.00;;;;;;5115385;27;20227;-68
2023/12/31 12:51:44;;;;;;;32.47;17.53;;;6.30;1.00;;;;;;5108287;27;20218;-68
2023/12/31 12:54:12;;;;;;;31.53;16.93;;;6.40;1.00;;;;;;5094097;27;20593;-68
2023/12/31 12:56:41;;;;;;;28.33;17.23;;;6.40;1.00;;;;;;5105953;27;20223;-67
2023/12/31 12:59:09;;;;;;;30.47;17.00;;;6.10;1.00;;;;;;5107045;27;20237;-68
2023/12/31 13:01:38;;;;;;;29.17;16.60;;;6.10;1.00;;;;;;5098210;27;20286;-68